Khasavyurt, Russia
Current Conditions -  °F | °C
As of 6:00 AM on Saturday 25 Oct 2014 (Local Time) from URML Reporting Station
Light Rain Light Rain  
Wind Chill: 39°   Ceiling: 1100
Heat Index: 45°   Visibility: 2mi
Dew Point: 43°   Wind: 11mph
Humidity: 93%   Direction: 360°N
Pressure: 30.15"   Gusts: NA
Location:  43.24°N, 46.58°E
Report Text: URML 250300Z 36005MPS 3200 -RA BR OVC011 07/06 Q1021 TEMPO 1000RA BR OVC003 RMK MT OBSC QFE765/1020
Loading
Personal Weather Stations






























Interactive Weather Map
Tropical Storm Tracking
New forecast layout! Learn more

10-Day Weather Forecast

Advertisements
Track Severe Weather on mobile